sensor_id;sensor_type;location;lat;lon;timestamp;pressure;altitude;pressure_sealevel;temperature;humidity
43934;BME280;59081;42.706;23.306;2022-10-16T00:01:13;95853.09;;;9.58;75.60
43934;BME280;59081;42.706;23.306;2022-10-16T00:03:40;95893.34;;;9.75;75.92
43934;BME280;59081;42.706;23.306;2022-10-16T00:06:06;95777.25;;;9.03;76.08
43934;BME280;59081;42.706;23.306;2022-10-16T00:08:34;95702.41;;;8.65;74.97
43934;BME280;59081;42.706;23.306;2022-10-16T00:11:01;95888.53;;;9.83;75.10
43934;BME280;59081;42.706;23.306;2022-10-16T00:13:27;95857.03;;;9.57;75.09
43934;BME280;59081;42.706;23.306;2022-10-16T00:15:55;95892.16;;;9.76;74.73
43934;BME280;59081;42.706;23.306;2022-10-16T00:18:21;95855.59;;;9.49;75.27
43934;BME280;59081;42.706;23.306;2022-10-16T00:20:46;95901.59;;;9.75;75.56
43934;BME280;59081;42.706;23.306;2022-10-16T00:23:12;95821.78;;;9.21;75.50
43934;BME280;59081;42.706;23.306;2022-10-16T00:25:38;95784.81;;;8.95;75.18
43934;BME280;59081;42.706;23.306;2022-10-16T00:28:03;95818.66;;;9.19;74.91
43934;BME280;59081;42.706;23.306;2022-10-16T00:30:28;95807.41;;;9.10;74.90
43934;BME280;59081;42.706;23.306;2022-10-16T00:32:55;95833.13;;;9.23;74.80
43934;BME280;59081;42.706;23.306;2022-10-16T00:35:20;95781.00;;;8.86;74.58
43934;BME280;59081;42.706;23.306;2022-10-16T00:37:46;95757.19;;;8.76;74.52
43934;BME280;59081;42.706;23.306;2022-10-16T00:40:11;95879.81;;;9.57;74.50
43934;BME280;59081;42.706;23.306;2022-10-16T00:42:37;95899.25;;;9.43;75.34
43934;BME280;59081;42.706;23.306;2022-10-16T00:45:04;95900.00;;;9.17;76.58
43934;BME280;59081;42.706;23.306;2022-10-16T00:50:05;95936.34;;;9.31;76.64
43934;BME280;59081;42.706;23.306;2022-10-16T00:52:32;95830.66;;;8.23;78.52
43934;BME280;59081;42.706;23.306;2022-10-16T00:54:57;95901.72;;;8.62;79.14
43934;BME280;59081;42.706;23.306;2022-10-16T00:57:23;95844.41;;;8.20;79.24
43934;BME280;59081;42.706;23.306;2022-10-16T00:59:50;95793.31;;;7.92;79.13
43934;BME280;59081;42.706;23.306;2022-10-16T01:02:16;95856.97;;;8.21;79.58
43934;BME280;59081;42.706;23.306;2022-10-16T01:04:53;95947.06;;;8.81;79.25
43934;BME280;59081;42.706;23.306;2022-10-16T01:17:43;95805.09;;;8.33;77.32
43934;BME280;59081;42.706;23.306;2022-10-16T01:20:16;95851.03;;;8.70;76.74
43934;BME280;59081;42.706;23.306;2022-10-16T01:28:38;95855.66;;;8.77;76.58
43934;BME280;59081;42.706;23.306;2022-10-16T01:31:05;95849.09;;;8.67;76.60
43934;BME280;59081;42.706;23.306;2022-10-16T01:33:45;95796.91;;;8.30;76.76
43934;BME280;59081;42.706;23.306;2022-10-16T01:36:18;95848.00;;;8.61;76.65
43934;BME280;59081;42.706;23.306;2022-10-16T01:38:49;95871.75;;;8.79;76.83
43934;BME280;59081;42.706;23.306;2022-10-16T01:41:32;95801.16;;;8.38;76.42
43934;BME280;59081;42.706;23.306;2022-10-16T01:46:33;95912.75;;;9.00;76.12
43934;BME280;59081;42.706;23.306;2022-10-16T01:49:01;95851.13;;;8.63;76.37
43934;BME280;59081;42.706;23.306;2022-10-16T01:51:28;95891.25;;;8.88;76.38
43934;BME280;59081;42.706;23.306;2022-10-16T01:53:57;95865.13;;;8.72;76.00
43934;BME280;59081;42.706;23.306;2022-10-16T01:56:24;95840.72;;;8.44;76.36
43934;BME280;59081;42.706;23.306;2022-10-16T01:59:15;95933.81;;;9.10;76.76
43934;BME280;59081;42.706;23.306;2022-10-16T02:01:45;95921.78;;;8.97;76.64
43934;BME280;59081;42.706;23.306;2022-10-16T02:04:20;95798.66;;;8.10;76.62
43934;BME280;59081;42.706;23.306;2022-10-16T02:06:48;95886.28;;;8.76;76.23
43934;BME280;59081;42.706;23.306;2022-10-16T02:09:14;95922.22;;;8.92;76.64
43934;BME280;59081;42.706;23.306;2022-10-16T02:11:42;95931.91;;;9.03;76.31
43934;BME280;59081;42.706;23.306;2022-10-16T02:14:09;95909.31;;;8.89;76.63
43934;BME280;59081;42.706;23.306;2022-10-16T02:16:38;95857.09;;;8.51;76.42
43934;BME280;59081;42.706;23.306;2022-10-16T02:19:05;95962.06;;;9.14;76.22
43934;BME280;59081;42.706;23.306;2022-10-16T02:21:49;95958.97;;;9.08;76.41
43934;BME280;59081;42.706;23.306;2022-10-16T02:29:40;95845.59;;;8.19;76.38
43934;BME280;59081;42.706;23.306;2022-10-16T02:32:12;95854.97;;;8.25;76.43
43934;BME280;59081;42.706;23.306;2022-10-16T02:34:39;95786.41;;;7.73;76.58
43934;BME280;59081;42.706;23.306;2022-10-16T02:37:06;95876.53;;;8.26;76.96
43934;BME280;59081;42.706;23.306;2022-10-16T02:39:33;95794.25;;;7.71;76.56
43934;BME280;59081;42.706;23.306;2022-10-16T02:41:59;95887.47;;;8.30;76.60
43934;BME280;59081;42.706;23.306;2022-10-16T02:44:24;95936.69;;;8.58;76.65
43934;BME280;59081;42.706;23.306;2022-10-16T02:46:50;95933.97;;;8.51;76.84
43934;BME280;59081;42.706;23.306;2022-10-16T02:49:15;95878.28;;;8.02;76.39
43934;BME280;59081;42.706;23.306;2022-10-16T02:51:41;95884.50;;;8.10;76.56
43934;BME280;59081;42.706;23.306;2022-10-16T02:54:06;95950.06;;;8.49;76.73
43934;BME280;59081;42.706;23.306;2022-10-16T02:56:32;95870.53;;;7.87;76.55
43934;BME280;59081;42.706;23.306;2022-10-16T02:58:58;95933.88;;;8.14;76.97
43934;BME280;59081;42.706;23.306;2022-10-16T03:01:23;95856.25;;;7.61;76.99
43934;BME280;59081;42.706;23.306;2022-10-16T03:03:49;95816.03;;;7.41;76.77
43934;BME280;59081;42.706;23.306;2022-10-16T03:06:15;95893.66;;;7.86;76.67
43934;BME280;59081;42.706;23.306;2022-10-16T03:08:41;95936.16;;;8.19;76.87
43934;BME280;59081;42.706;23.306;2022-10-16T03:11:06;95898.72;;;7.94;76.73
43934;BME280;59081;42.706;23.306;2022-10-16T03:13:32;95855.06;;;7.59;76.85
43934;BME280;59081;42.706;23.306;2022-10-16T03:15:57;95871.47;;;7.62;77.06
43934;BME280;59081;42.706;23.306;2022-10-16T03:18:23;95881.63;;;7.69;77.27
43934;BME280;59081;42.706;23.306;2022-10-16T03:20:48;95902.69;;;7.83;76.86
43934;BME280;59081;42.706;23.306;2022-10-16T03:23:14;95846.50;;;7.46;76.80
43934;BME280;59081;42.706;23.306;2022-10-16T03:25:39;95848.47;;;7.46;76.63
43934;BME280;59081;42.706;23.306;2022-10-16T03:28:05;95953.47;;;8.12;76.77
43934;BME280;59081;42.706;23.306;2022-10-16T03:30:31;95906.66;;;7.78;76.62
43934;BME280;59081;42.706;23.306;2022-10-16T03:32:56;95883.28;;;7.56;76.48
43934;BME280;59081;42.706;23.306;2022-10-16T03:35:23;95901.22;;;7.67;76.97
43934;BME280;59081;42.706;23.306;2022-10-16T03:37:49;96005.47;;;8.37;76.98
43934;BME280;59081;42.706;23.306;2022-10-16T03:40:15;95980.84;;;8.23;77.14
43934;BME280;59081;42.706;23.306;2022-10-16T03:42:42;95937.13;;;7.94;76.66
43934;BME280;59081;42.706;23.306;2022-10-16T03:45:09;95968.34;;;8.15;76.50
43934;BME280;59081;42.706;23.306;2022-10-16T03:47:34;95893.38;;;7.73;76.68
43934;BME280;59081;42.706;23.306;2022-10-16T03:50:00;95969.13;;;8.15;76.38
43934;BME280;59081;42.706;23.306;2022-10-16T03:52:26;95996.44;;;8.40;76.61
43934;BME280;59081;42.706;23.306;2022-10-16T03:54:51;95877.00;;;7.59;76.25
43934;BME280;59081;42.706;23.306;2022-10-16T03:57:17;95920.69;;;7.87;76.75
43934;BME280;59081;42.706;23.306;2022-10-16T03:59:42;95830.59;;;7.27;76.60
43934;BME280;59081;42.706;23.306;2022-10-16T04:02:08;95890.28;;;7.64;76.58
43934;BME280;59081;42.706;23.306;2022-10-16T04:04:34;96002.03;;;8.15;77.22
43934;BME280;59081;42.706;23.306;2022-10-16T04:06:59;95954.41;;;7.84;77.46
43934;BME280;59081;42.706;23.306;2022-10-16T04:09:25;95998.22;;;7.98;77.92
43934;BME280;59081;42.706;23.306;2022-10-16T04:11:50;95985.06;;;7.68;79.02
43934;BME280;59081;42.706;23.306;2022-10-16T04:14:16;95837.06;;;6.71;79.18
43934;BME280;59081;42.706;23.306;2022-10-16T04:16:44;96008.16;;;7.75;79.66
43934;BME280;59081;42.706;23.306;2022-10-16T04:19:10;95884.31;;;6.96;79.62
43934;BME280;59081;42.706;23.306;2022-10-16T04:21:36;95895.22;;;7.10;79.87
43934;BME280;59081;42.706;23.306;2022-10-16T04:24:02;95807.81;;;6.53;79.78
43934;BME280;59081;42.706;23.306;2022-10-16T04:26:28;95803.50;;;6.56;79.59
43934;BME280;59081;42.706;23.306;2022-10-16T04:28:54;95909.31;;;7.16;79.23
43934;BME280;59081;42.706;23.306;2022-10-16T04:31:20;95843.28;;;6.78;78.91
43934;BME280;59081;42.706;23.306;2022-10-16T04:33:47;96010.06;;;7.85;78.48
43934;BME280;59081;42.706;23.306;2022-10-16T04:36:13;95869.06;;;6.95;78.51
43934;BME280;59081;42.706;23.306;2022-10-16T04:38:39;96016.31;;;7.92;78.15
43934;BME280;59081;42.706;23.306;2022-10-16T04:41:06;95785.91;;;6.46;78.12
43934;BME280;59081;42.706;23.306;2022-10-16T04:43:32;95997.53;;;7.80;78.00
43934;BME280;59081;42.706;23.306;2022-10-16T04:45:57;95891.69;;;7.17;78.39
43934;BME280;59081;42.706;23.306;2022-10-16T04:48:23;95953.38;;;7.57;77.88
43934;BME280;59081;42.706;23.306;2022-10-16T04:50:48;95899.91;;;7.17;77.58
43934;BME280;59081;42.706;23.306;2022-10-16T04:53:14;95890.19;;;7.02;77.94
43934;BME280;59081;42.706;23.306;2022-10-16T04:55:41;95842.13;;;6.76;78.15
43934;BME280;59081;42.706;23.306;2022-10-16T04:58:07;95947.94;;;7.46;77.99
43934;BME280;59081;42.706;23.306;2022-10-16T05:00:33;95938.19;;;7.34;77.95
43934;BME280;59081;42.706;23.306;2022-10-16T05:02:59;95903.44;;;7.10;78.17
43934;BME280;59081;42.706;23.306;2022-10-16T05:05:26;95903.09;;;7.01;78.40
43934;BME280;59081;42.706;23.306;2022-10-16T05:07:53;95958.53;;;7.41;78.13
43934;BME280;59081;42.706;23.306;2022-10-16T05:10:19;95850.72;;;6.78;78.30
43934;BME280;59081;42.706;23.306;2022-10-16T05:12:44;95920.63;;;7.21;77.80
43934;BME280;59081;42.706;23.306;2022-10-16T05:15:10;95962.41;;;7.47;77.86
43934;BME280;59081;42.706;23.306;2022-10-16T05:17:36;95891.34;;;7.01;77.52
43934;BME280;59081;42.706;23.306;2022-10-16T05:20:01;95867.88;;;6.96;77.54
43934;BME280;59081;42.706;23.306;2022-10-16T05:22:27;95919.81;;;7.31;77.48
43934;BME280;59081;42.706;23.306;2022-10-16T05:24:52;95998.31;;;7.84;77.55
43934;BME280;59081;42.706;23.306;2022-10-16T05:27:18;95918.25;;;7.30;77.27
43934;BME280;59081;42.706;23.306;2022-10-16T05:29:47;96049.47;;;8.19;77.48
43934;BME280;59081;42.706;23.306;2022-10-16T05:32:17;95998.28;;;7.88;77.57
43934;BME280;59081;42.706;23.306;2022-10-16T05:34:44;96002.19;;;7.94;77.43
43934;BME280;59081;42.706;23.306;2022-10-16T05:37:12;96062.78;;;8.28;77.36
43934;BME280;59081;42.706;23.306;2022-10-16T05:39:39;96066.66;;;8.34;77.78
43934;BME280;59081;42.706;23.306;2022-10-16T05:42:05;95869.38;;;7.15;77.33
43934;BME280;59081;42.706;23.306;2022-10-16T05:44:31;96042.75;;;8.31;77.27
43934;BME280;59081;42.706;23.306;2022-10-16T05:46:56;95935.31;;;7.66;77.19
43934;BME280;59081;42.706;23.306;2022-10-16T05:49:22;95986.44;;;8.09;76.69
43934;BME280;59081;42.706;23.306;2022-10-16T05:51:47;95976.31;;;7.95;76.64
43934;BME280;59081;42.706;23.306;2022-10-16T05:54:13;95974.72;;;7.97;76.96
43934;BME280;59081;42.706;23.306;2022-10-16T05:56:39;96069.25;;;8.62;76.29
43934;BME280;59081;42.706;23.306;2022-10-16T05:59:05;95973.19;;;7.96;76.15
43934;BME280;59081;42.706;23.306;2022-10-16T06:01:30;95894.25;;;7.56;76.05
43934;BME280;59081;42.706;23.306;2022-10-16T06:03:56;95992.69;;;8.13;75.55
43934;BME280;59081;42.706;23.306;2022-10-16T06:06:26;96027.34;;;8.51;75.70
43934;BME280;59081;42.706;23.306;2022-10-16T06:08:52;96032.38;;;8.60;75.05
43934;BME280;59081;42.706;23.306;2022-10-16T06:11:20;96038.97;;;8.69;74.76
43934;BME280;59081;42.706;23.306;2022-10-16T06:13:55;96060.78;;;8.91;74.44
43934;BME280;59081;42.706;23.306;2022-10-16T06:16:25;96017.38;;;8.71;73.51
43934;BME280;59081;42.706;23.306;2022-10-16T06:18:52;95995.84;;;8.66;73.24
43934;BME280;59081;42.706;23.306;2022-10-16T06:21:20;96102.38;;;9.41;72.62
43934;BME280;59081;42.706;23.306;2022-10-16T06:23:46;96014.50;;;8.89;72.13
43934;BME280;59081;42.706;23.306;2022-10-16T06:26:15;96060.50;;;9.26;72.07
43934;BME280;59081;42.706;23.306;2022-10-16T06:28:42;96075.22;;;9.47;72.30
43934;BME280;59081;42.706;23.306;2022-10-16T06:31:09;95937.31;;;8.73;72.03
43934;BME280;59081;42.706;23.306;2022-10-16T06:33:35;96108.88;;;9.99;70.85
43934;BME280;59081;42.706;23.306;2022-10-16T06:36:07;96056.84;;;9.74;70.90
43934;BME280;59081;42.706;23.306;2022-10-16T06:38:33;96041.88;;;9.78;69.66
43934;BME280;59081;42.706;23.306;2022-10-16T06:40:59;96054.97;;;10.01;68.37
43934;BME280;59081;42.706;23.306;2022-10-16T06:43:25;96069.72;;;9.84;68.50
43934;BME280;59081;42.706;23.306;2022-10-16T06:45:53;96061.19;;;10.05;68.23
43934;BME280;59081;42.706;23.306;2022-10-16T06:48:20;96107.91;;;10.46;68.24
43934;BME280;59081;42.706;23.306;2022-10-16T06:53:29;96071.19;;;10.84;65.91
43934;BME280;59081;42.706;23.306;2022-10-16T06:55:55;96080.78;;;10.99;65.44
43934;BME280;59081;42.706;23.306;2022-10-16T06:58:21;96046.38;;;10.84;64.96
43934;BME280;59081;42.706;23.306;2022-10-16T07:00:47;96041.59;;;10.88;64.51
43934;BME280;59081;42.706;23.306;2022-10-16T07:03:13;96022.88;;;10.99;63.54
43934;BME280;59081;42.706;23.306;2022-10-16T07:05:40;96098.06;;;11.49;63.35
43934;BME280;59081;42.706;23.306;2022-10-16T07:08:06;96083.19;;;11.43;63.06
43934;BME280;59081;42.706;23.306;2022-10-16T07:10:32;95952.19;;;10.89;62.15
43934;BME280;59081;42.706;23.306;2022-10-16T07:12:58;96011.88;;;11.22;61.55
43934;BME280;59081;42.706;23.306;2022-10-16T07:15:24;96151.00;;;12.31;61.74
43934;BME280;59081;42.706;23.306;2022-10-16T07:17:50;96090.69;;;11.90;61.37
43934;BME280;59081;42.706;23.306;2022-10-16T07:20:16;96038.59;;;11.25;62.42
43934;BME280;59081;42.706;23.306;2022-10-16T07:22:41;96031.84;;;11.49;61.79
43934;BME280;59081;42.706;23.306;2022-10-16T07:25:07;96073.34;;;11.89;61.53
43934;BME280;59081;42.706;23.306;2022-10-16T07:27:33;95999.78;;;11.36;61.20
43934;BME280;59081;42.706;23.306;2022-10-16T07:29:59;96092.34;;;11.60;62.33
43934;BME280;59081;42.706;23.306;2022-10-16T07:32:25;96017.19;;;11.09;62.40
43934;BME280;59081;42.706;23.306;2022-10-16T07:34:51;96051.88;;;11.77;61.89
43934;BME280;59081;42.706;23.306;2022-10-16T07:37:17;96006.19;;;11.72;60.48
43934;BME280;59081;42.706;23.306;2022-10-16T07:39:42;96028.97;;;11.57;60.62
43934;BME280;59081;42.706;23.306;2022-10-16T07:42:08;96122.06;;;12.39;60.44
43934;BME280;59081;42.706;23.306;2022-10-16T07:44:33;96088.34;;;12.28;60.48
43934;BME280;59081;42.706;23.306;2022-10-16T07:46:59;96131.75;;;12.83;59.25
43934;BME280;59081;42.706;23.306;2022-10-16T07:49:24;96034.84;;;12.38;58.63
43934;BME280;59081;42.706;23.306;2022-10-16T07:51:50;96096.22;;;12.65;58.54
43934;BME280;59081;42.706;23.306;2022-10-16T07:54:15;95999.19;;;11.68;60.41
43934;BME280;59081;42.706;23.306;2022-10-16T07:56:41;96064.97;;;12.12;60.51
43934;BME280;59081;42.706;23.306;2022-10-16T07:59:06;96118.28;;;12.85;59.89
43934;BME280;59081;42.706;23.306;2022-10-16T08:01:32;96085.75;;;13.09;57.65
43934;BME280;59081;42.706;23.306;2022-10-16T08:03:57;96071.75;;;13.48;56.17
43934;BME280;59081;42.706;23.306;2022-10-16T08:06:23;96051.03;;;13.24;55.56
43934;BME280;59081;42.706;23.306;2022-10-16T08:08:48;96083.63;;;13.49;55.25
43934;BME280;59081;42.706;23.306;2022-10-16T08:11:14;96163.94;;;13.94;55.89
43934;BME280;59081;42.706;23.306;2022-10-16T08:13:41;96091.19;;;13.77;55.14
43934;BME280;59081;42.706;23.306;2022-10-16T08:16:07;96097.44;;;13.65;54.84
43934;BME280;59081;42.706;23.306;2022-10-16T08:18:35;96102.41;;;14.15;54.66
43934;BME280;59081;42.706;23.306;2022-10-16T08:21:01;96016.66;;;13.83;54.12
43934;BME280;59081;42.706;23.306;2022-10-16T08:23:28;96127.50;;;14.53;53.50
43934;BME280;59081;42.706;23.306;2022-10-16T08:25:53;96079.19;;;14.38;53.67
43934;BME280;59081;42.706;23.306;2022-10-16T08:28:19;96051.97;;;13.79;53.99
43934;BME280;59081;42.706;23.306;2022-10-16T08:30:45;96089.34;;;13.71;55.15
43934;BME280;59081;42.706;23.306;2022-10-16T08:33:11;96021.16;;;13.48;55.24
43934;BME280;59081;42.706;23.306;2022-10-16T08:35:36;96101.34;;;14.38;53.60
43934;BME280;59081;42.706;23.306;2022-10-16T08:38:06;96071.72;;;14.51;52.75
43934;BME280;59081;42.706;23.306;2022-10-16T08:40:33;96056.66;;;14.65;52.23
43934;BME280;59081;42.706;23.306;2022-10-16T08:43:18;96158.53;;;15.53;50.65
43934;BME280;59081;42.706;23.306;2022-10-16T08:48:33;96013.91;;;15.13;49.37
43934;BME280;59081;42.706;23.306;2022-10-16T08:51:02;96072.34;;;15.70;48.74
43934;BME280;59081;42.706;23.306;2022-10-16T08:53:35;96085.50;;;15.78;48.94
43934;BME280;59081;42.706;23.306;2022-10-16T08:56:01;96075.25;;;15.53;49.04
43934;BME280;59081;42.706;23.306;2022-10-16T08:58:29;96011.69;;;15.21;48.61
43934;BME280;59081;42.706;23.306;2022-10-16T09:01:00;96050.13;;;15.70;48.13
43934;BME280;59081;42.706;23.306;2022-10-16T09:06:31;96043.22;;;15.96;45.04
43934;BME280;59081;42.706;23.306;2022-10-16T09:11:48;96080.59;;;16.60;43.64
43934;BME280;59081;42.706;23.306;2022-10-16T09:17:37;96145.66;;;17.47;40.62
43934;BME280;59081;42.706;23.306;2022-10-16T09:22:45;96095.91;;;16.87;41.52
43934;BME280;59081;42.706;23.306;2022-10-16T09:25:15;96076.22;;;16.81;41.50
43934;BME280;59081;42.706;23.306;2022-10-16T09:27:42;96058.22;;;16.95;40.78
43934;BME280;59081;42.706;23.306;2022-10-16T09:30:14;96147.03;;;17.82;40.54
43934;BME280;59081;42.706;23.306;2022-10-16T09:32:41;96154.34;;;17.98;39.42
43934;BME280;59081;42.706;23.306;2022-10-16T09:35:15;96080.59;;;17.22;39.80
43934;BME280;59081;42.706;23.306;2022-10-16T09:37:43;96077.72;;;17.44;39.16
43934;BME280;59081;42.706;23.306;2022-10-16T09:40:25;96062.31;;;17.21;39.43
43934;BME280;59081;42.706;23.306;2022-10-16T09:43:01;96104.06;;;17.61;39.74
43934;BME280;59081;42.706;23.306;2022-10-16T09:45:27;96071.78;;;17.91;39.19
43934;BME280;59081;42.706;23.306;2022-10-16T09:47:53;96091.28;;;17.91;38.94
43934;BME280;59081;42.706;23.306;2022-10-16T09:50:27;96097.94;;;18.49;38.22
43934;BME280;59081;42.706;23.306;2022-10-16T09:53:10;96011.69;;;16.95;39.16
43934;BME280;59081;42.706;23.306;2022-10-16T09:55:36;96006.41;;;16.88;39.67
43934;BME280;59081;42.706;23.306;2022-10-16T09:58:13;96038.81;;;17.81;38.73
43934;BME280;59081;42.706;23.306;2022-10-16T10:00:41;96067.44;;;17.99;38.16
43934;BME280;59081;42.706;23.306;2022-10-16T10:03:10;95976.22;;;17.63;38.17
43934;BME280;59081;42.706;23.306;2022-10-16T10:05:39;96035.06;;;17.93;38.21
43934;BME280;59081;42.706;23.306;2022-10-16T10:08:05;96064.78;;;18.41;37.98
43934;BME280;59081;42.706;23.306;2022-10-16T10:10:41;96060.28;;;18.62;38.58
43934;BME280;59081;42.706;23.306;2022-10-16T10:13:21;96015.84;;;18.04;38.24
43934;BME280;59081;42.706;23.306;2022-10-16T10:15:47;96010.28;;;18.13;38.61
43934;BME280;59081;42.706;23.306;2022-10-16T10:18:18;96065.59;;;18.93;38.34
43934;BME280;59081;42.706;23.306;2022-10-16T10:20:44;96074.97;;;19.56;37.50
43934;BME280;59081;42.706;23.306;2022-10-16T10:23:21;96099.59;;;20.29;36.64
43934;BME280;59081;42.706;23.306;2022-10-16T10:31:21;96111.28;;;20.81;34.74
43934;BME280;59081;42.706;23.306;2022-10-16T10:34:24;96105.28;;;21.17;33.88
43934;BME280;59081;42.706;23.306;2022-10-16T10:36:59;96071.50;;;20.47;35.15
43934;BME280;59081;42.706;23.306;2022-10-16T10:42:04;96095.91;;;20.08;35.80
43934;BME280;59081;42.706;23.306;2022-10-16T10:47:20;95990.47;;;20.00;35.23
43934;BME280;59081;42.706;23.306;2022-10-16T10:53:43;96077.66;;;21.40;33.83
43934;BME280;59081;42.706;23.306;2022-10-16T11:02:13;96007.41;;;20.64;34.34
43934;BME280;59081;42.706;23.306;2022-10-16T11:07:36;96053.88;;;20.32;35.47
43934;BME280;59081;42.706;23.306;2022-10-16T11:10:12;95987.97;;;20.16;35.96
43934;BME280;59081;42.706;23.306;2022-10-16T11:12:44;96068.78;;;21.12;34.55
43934;BME280;59081;42.706;23.306;2022-10-16T11:15:18;95975.41;;;21.00;33.89
43934;BME280;59081;42.706;23.306;2022-10-16T11:17:48;95991.13;;;21.12;33.61
43934;BME280;59081;42.706;23.306;2022-10-16T11:20:17;96060.00;;;21.54;33.36
43934;BME280;59081;42.706;23.306;2022-10-16T11:22:51;95975.34;;;20.80;33.89
43934;BME280;59081;42.706;23.306;2022-10-16T11:25:22;96037.44;;;21.83;33.16
43934;BME280;59081;42.706;23.306;2022-10-16T11:30:24;96052.59;;;21.71;33.14
43934;BME280;59081;42.706;23.306;2022-10-16T11:35:38;96063.09;;;22.11;32.52
43934;BME280;59081;42.706;23.306;2022-10-16T11:41:16;95939.56;;;22.06;31.19
43934;BME280;59081;42.706;23.306;2022-10-16T11:44:04;95904.00;;;21.51;31.30
43934;BME280;59081;42.706;23.306;2022-10-16T11:46:33;96054.56;;;23.04;30.35
43934;BME280;59081;42.706;23.306;2022-10-16T11:51:41;95953.09;;;22.07;29.81
43934;BME280;59081;42.706;23.306;2022-10-16T11:54:28;95936.16;;;21.76;30.65
43934;BME280;59081;42.706;23.306;2022-10-16T11:57:01;96050.66;;;22.70;30.49
43934;BME280;59081;42.706;23.306;2022-10-16T11:59:36;95943.91;;;21.86;29.96
43934;BME280;59081;42.706;23.306;2022-10-16T12:02:32;96049.34;;;23.17;29.23
43934;BME280;59081;42.706;23.306;2022-10-16T12:07:36;95989.28;;;23.57;29.23
43934;BME280;59081;42.706;23.306;2022-10-16T12:10:19;95956.41;;;23.32;27.61
43934;BME280;59081;42.706;23.306;2022-10-16T12:12:45;96043.84;;;24.36;26.93
43934;BME280;59081;42.706;23.306;2022-10-16T12:15:29;96033.66;;;24.66;26.30
43934;BME280;59081;42.706;23.306;2022-10-16T12:17:55;96010.34;;;24.60;26.58
43934;BME280;59081;42.706;23.306;2022-10-16T12:20:25;96043.47;;;25.10;25.83
43934;BME280;59081;42.706;23.306;2022-10-16T12:23:03;96051.06;;;24.53;25.99
43934;BME280;59081;42.706;23.306;2022-10-16T12:25:39;96037.41;;;23.65;26.91
43934;BME280;59081;42.706;23.306;2022-10-16T12:30:40;95964.22;;;23.53;27.05
43934;BME280;59081;42.706;23.306;2022-10-16T12:33:21;96002.41;;;23.71;26.58
43934;BME280;59081;42.706;23.306;2022-10-16T12:35:47;95951.44;;;23.52;26.50
43934;BME280;59081;42.706;23.306;2022-10-16T12:41:11;95987.13;;;22.98;26.60
43934;BME280;59081;42.706;23.306;2022-10-16T12:43:46;96048.41;;;23.68;26.51
43934;BME280;59081;42.706;23.306;2022-10-16T12:48:40;96025.50;;;24.85;25.29
43934;BME280;59081;42.706;23.306;2022-10-16T12:51:11;96021.72;;;24.12;26.27
43934;BME280;59081;42.706;23.306;2022-10-16T12:53:37;96047.19;;;24.45;25.29
43934;BME280;59081;42.706;23.306;2022-10-16T12:56:09;96045.69;;;24.50;25.08
43934;BME280;59081;42.706;23.306;2022-10-16T13:06:57;95944.78;;;24.26;24.38
43934;BME280;59081;42.706;23.306;2022-10-16T13:15:10;96015.28;;;25.26;23.78
43934;BME280;59081;42.706;23.306;2022-10-16T13:23:49;95953.50;;;24.61;23.89
43934;BME280;59081;42.706;23.306;2022-10-16T13:26:28;96028.81;;;25.33;23.63
43934;BME280;59081;42.706;23.306;2022-10-16T13:29:00;96039.06;;;25.53;24.37
43934;BME280;59081;42.706;23.306;2022-10-16T13:31:27;96053.66;;;25.63;24.13
43934;BME280;59081;42.706;23.306;2022-10-16T13:33:56;96044.97;;;25.39;24.52
43934;BME280;59081;42.706;23.306;2022-10-16T13:36:25;96061.13;;;25.32;24.05
43934;BME280;59081;42.706;23.306;2022-10-16T13:44:33;95971.19;;;24.62;23.41
43934;BME280;59081;42.706;23.306;2022-10-16T13:47:02;95984.00;;;24.69;23.15
43934;BME280;59081;42.706;23.306;2022-10-16T13:49:28;96000.19;;;23.44;24.00
43934;BME280;59081;42.706;23.306;2022-10-16T13:51:55;95965.50;;;23.58;23.83
43934;BME280;59081;42.706;23.306;2022-10-16T13:54:21;95945.53;;;23.08;24.05
43934;BME280;59081;42.706;23.306;2022-10-16T13:56:46;96031.94;;;23.98;23.78
43934;BME280;59081;42.706;23.306;2022-10-16T13:59:41;96036.66;;;23.75;25.06
43934;BME280;59081;42.706;23.306;2022-10-16T14:04:45;96012.91;;;23.34;24.28
43934;BME280;59081;42.706;23.306;2022-10-16T14:07:15;95994.72;;;23.29;24.28
43934;BME280;59081;42.706;23.306;2022-10-16T14:09:48;96051.41;;;23.59;24.19
43934;BME280;59081;42.706;23.306;2022-10-16T14:12:15;95961.00;;;22.92;24.24
43934;BME280;59081;42.706;23.306;2022-10-16T14:14:43;96045.66;;;23.37;24.76
43934;BME280;59081;42.706;23.306;2022-10-16T14:17:18;95995.19;;;22.85;24.99
43934;BME280;59081;42.706;23.306;2022-10-16T14:19:47;96000.38;;;21.94;26.11
43934;BME280;59081;42.706;23.306;2022-10-16T14:22:28;96081.09;;;22.05;26.34
43934;BME280;59081;42.706;23.306;2022-10-16T14:24:55;96016.97;;;21.37;26.71
43934;BME280;59081;42.706;23.306;2022-10-16T14:27:31;96077.25;;;21.47;27.15
43934;BME280;59081;42.706;23.306;2022-10-16T14:30:17;96083.09;;;20.55;28.32
43934;BME280;59081;42.706;23.306;2022-10-16T14:33:05;96053.19;;;19.84;28.96
43934;BME280;59081;42.706;23.306;2022-10-16T14:37:58;96095.38;;;19.38;30.22
43934;BME280;59081;42.706;23.306;2022-10-16T14:40:33;96027.25;;;18.52;30.98
43934;BME280;59081;42.706;23.306;2022-10-16T14:43:00;95999.56;;;18.21;30.97
43934;BME280;59081;42.706;23.306;2022-10-16T14:45:28;95977.81;;;17.83;31.82
43934;BME280;59081;42.706;23.306;2022-10-16T14:48:00;96094.84;;;18.28;32.49
43934;BME280;59081;42.706;23.306;2022-10-16T14:50:28;96029.19;;;17.82;32.51
43934;BME280;59081;42.706;23.306;2022-10-16T14:52:54;95981.72;;;17.18;32.98
43934;BME280;59081;42.706;23.306;2022-10-16T14:55:20;96106.31;;;17.94;33.44
43934;BME280;59081;42.706;23.306;2022-10-16T14:57:46;95990.00;;;16.90;34.21
43934;BME280;59081;42.706;23.306;2022-10-16T15:00:14;96105.00;;;17.67;34.18
43934;BME280;59081;42.706;23.306;2022-10-16T15:02:41;96019.59;;;17.06;34.41